createdAt,value
2023-03-31T00:00:23.863Z,99916.87
2023-03-31T00:03:26.957Z,99918.59
2023-03-31T00:06:30.009Z,99913.19
2023-03-31T00:09:35.706Z,99914.19
2023-03-31T00:12:38.214Z,99909.50
2023-03-31T00:15:40.636Z,99913.50
2023-03-31T00:18:47.588Z,99914.31
2023-03-31T00:21:51.615Z,99908.56
2023-03-31T00:24:53.890Z,99904.31
2023-03-31T00:27:56.334Z,99907.47
2023-03-31T00:31:02.342Z,99900.06
2023-03-31T00:34:05.116Z,99896.44
2023-03-31T00:37:09.932Z,99888.56
2023-03-31T00:40:13.322Z,99885.88
2023-03-31T00:43:29.396Z,99894.47
2023-03-31T00:46:34.468Z,99880.91
2023-03-31T00:49:45.642Z,99878.16
2023-03-31T00:52:51.475Z,99871.47
2023-03-31T00:55:55.853Z,99877.78
2023-03-31T00:59:02.052Z,99880.91
2023-03-31T01:02:05.028Z,99877.16
2023-03-31T01:05:09.012Z,99878.63
2023-03-31T01:08:12.226Z,99875.19
2023-03-31T01:11:18.880Z,99869.00
2023-03-31T01:14:21.291Z,99870.91
2023-03-31T01:17:25.273Z,99869.03
2023-03-31T01:20:31.415Z,99863.59
2023-03-31T01:23:37.590Z,99873.22
2023-03-31T01:26:55.610Z,99862.13
2023-03-31T01:30:36.953Z,99864.03
2023-03-31T01:33:54.095Z,99862.31
2023-03-31T01:37:00.102Z,99861.81
2023-03-31T01:40:11.516Z,99860.56
2023-03-31T01:43:23.481Z,99863.78
2023-03-31T01:46:31.820Z,99864.41
2023-03-31T01:49:37.282Z,99857.91
2023-03-31T01:52:47.087Z,99856.97
2023-03-31T01:56:04.396Z,99864.19
2023-03-31T01:59:09.781Z,99860.53
2023-03-31T02:02:12.842Z,99854.66
2023-03-31T02:05:19.072Z,99859.38
2023-03-31T02:08:36.278Z,99856.66
2023-03-31T02:11:40.367Z,99856.13
2023-03-31T02:14:45.204Z,99860.75
2023-03-31T02:17:51.461Z,99858.13
2023-03-31T02:20:57.448Z,99854.75
2023-03-31T02:24:02.892Z,99864.50
2023-03-31T02:27:24.204Z,99859.03
2023-03-31T02:30:30.753Z,99856.75
2023-03-31T02:33:33.729Z,99852.47
2023-03-31T02:36:36.392Z,99860.66
2023-03-31T02:39:41.445Z,99849.84
2023-03-31T02:42:47.552Z,99850.06
2023-03-31T02:45:50.890Z,99847.44
2023-03-31T02:48:55.552Z,99842.53
2023-03-31T02:52:16.985Z,99843.47
2023-03-31T02:55:22.572Z,99851.75
2023-03-31T02:58:34.546Z,99841.69
2023-03-31T03:02:00.742Z,99834.88
2023-03-31T03:05:26.477Z,99824.72
2023-03-31T03:09:02.940Z,99833.53
2023-03-31T03:12:05.846Z,99822.62
2023-03-31T03:15:08.131Z,99830.91
2023-03-31T03:18:12.270Z,99832.38
2023-03-31T03:21:14.583Z,99837.59
2023-03-31T03:24:17.968Z,99828.09
2023-03-31T03:27:22.807Z,99827.56
2023-03-31T03:30:25.866Z,99832.38
2023-03-31T03:33:28.038Z,99832.69
2023-03-31T03:36:30.685Z,99832.56
2023-03-31T03:39:32.760Z,99843.25
2023-03-31T03:42:35.589Z,99838.28
2023-03-31T03:45:37.727Z,99838.25
2023-03-31T03:48:40.408Z,99845.31
2023-03-31T03:51:42.350Z,99835.63
2023-03-31T03:54:44.808Z,99835.75
2023-03-31T03:57:46.896Z,99838.75
2023-03-31T04:00:49.302Z,99836.03
2023-03-31T04:03:51.996Z,99846.78
2023-03-31T04:06:54.392Z,99842.69
2023-03-31T04:09:56.735Z,99835.91
2023-03-31T04:12:58.909Z,99844.19
2023-03-31T04:16:01.370Z,99838.00
2023-03-31T04:19:05.071Z,99830.56
2023-03-31T04:22:11.652Z,99828.56
2023-03-31T04:25:17.890Z,99829.59
2023-03-31T04:28:20.207Z,99836.06
2023-03-31T04:31:25.700Z,99832.87
2023-03-31T04:34:35.047Z,99838.94
2023-03-31T04:37:38.919Z,99839.78
2023-03-31T04:40:41.597Z,99843.78
2023-03-31T04:43:46.611Z,99836.38
2023-03-31T04:46:49.181Z,99837.78
2023-03-31T04:49:51.273Z,99843.06
2023-03-31T04:52:53.758Z,99836.16
2023-03-31T04:55:56.262Z,99837.41
2023-03-31T04:58:59.022Z,99831.41
2023-03-31T05:02:01.365Z,99837.84
2023-03-31T05:05:05.184Z,99831.44
2023-03-31T05:08:07.673Z,99830.41
2023-03-31T05:11:11.046Z,99819.00
2023-03-31T05:14:13.645Z,99813.81
2023-03-31T05:17:17.938Z,99809.22
2023-03-31T05:20:20.388Z,99810.19
2023-03-31T05:23:22.883Z,99807.91
2023-03-31T05:26:25.582Z,99803.47
2023-03-31T05:29:28.296Z,99814.66
2023-03-31T05:32:30.399Z,99818.13
2023-03-31T05:35:33.771Z,99819.66
2023-03-31T05:38:35.965Z,99817.16
2023-03-31T05:41:38.902Z,99810.66
2023-03-31T05:44:41.092Z,99809.63
2023-03-31T05:47:43.622Z,99820.72
2023-03-31T05:50:46.093Z,99814.41
2023-03-31T05:53:48.510Z,99814.00
2023-03-31T05:56:50.579Z,99811.28
2023-03-31T05:59:53.092Z,99816.09
2023-03-31T06:02:55.350Z,99811.25
2023-03-31T06:05:58.664Z,99804.09
2023-03-31T06:09:01.072Z,99810.31
2023-03-31T06:12:03.461Z,99799.91
2023-03-31T06:15:05.715Z,99795.50
2023-03-31T06:18:10.690Z,99797.16
2023-03-31T06:21:13.636Z,99800.78
2023-03-31T06:24:16.090Z,99793.22
2023-03-31T06:27:18.236Z,99801.84
2023-03-31T06:30:21.634Z,99794.38
2023-03-31T06:33:23.624Z,99794.19
2023-03-31T06:36:25.961Z,99795.91
2023-03-31T06:39:28.673Z,99791.09
2023-03-31T06:42:31.317Z,99785.56
2023-03-31T06:45:33.429Z,99790.25
2023-03-31T06:48:36.988Z,99790.00
2023-03-31T06:51:39.075Z,99785.41
2023-03-31T06:54:42.193Z,99781.28
2023-03-31T06:57:44.716Z,99785.69
2023-03-31T07:00:47.657Z,99791.53
2023-03-31T07:03:49.707Z,99793.13
2023-03-31T07:06:52.052Z,99798.34
2023-03-31T07:09:56.328Z,99806.81
2023-03-31T07:12:59.018Z,99806.50
2023-03-31T07:16:01.225Z,99804.72
2023-03-31T07:19:04.369Z,99806.16
2023-03-31T07:22:06.587Z,99802.94
2023-03-31T07:25:09.989Z,99792.81
2023-03-31T07:28:12.217Z,99794.44
2023-03-31T07:31:14.674Z,99788.72
2023-03-31T07:34:16.804Z,99776.88
2023-03-31T07:37:19.318Z,99782.31
2023-03-31T07:40:23.822Z,99779.41
2023-03-31T07:43:28.530Z,99761.72
2023-03-31T07:46:30.832Z,99757.69
2023-03-31T07:49:34.101Z,99754.22
2023-03-31T07:52:36.058Z,99746.53
2023-03-31T07:55:38.312Z,99745.50
2023-03-31T07:58:40.463Z,99746.03
2023-03-31T08:01:43.144Z,99755.41
2023-03-31T08:04:46.940Z,99755.81
2023-03-31T08:07:49.781Z,99745.03
2023-03-31T08:10:56.859Z,99743.00
2023-03-31T08:14:00.607Z,99732.81
2023-03-31T08:17:04.181Z,99726.72
2023-03-31T08:20:10.226Z,99722.22
2023-03-31T08:23:18.181Z,99715.22
2023-03-31T08:26:21.851Z,99719.41
2023-03-31T08:29:24.212Z,99715.28
2023-03-31T08:32:26.191Z,99711.16
2023-03-31T08:35:28.893Z,99704.00
2023-03-31T08:38:32.321Z,99693.16
2023-03-31T08:41:54.158Z,99685.75
2023-03-31T08:44:57.386Z,99683.44
2023-03-31T08:48:07.084Z,99674.63
2023-03-31T08:51:15.086Z,99672.16
2023-03-31T08:54:26.487Z,99679.09
2023-03-31T08:57:32.271Z,99666.13
2023-03-31T09:00:41.695Z,99659.31
2023-03-31T09:03:53.639Z,99650.06
2023-03-31T09:07:15.444Z,99641.44
2023-03-31T09:10:25.006Z,99636.34
2023-03-31T09:13:39.980Z,99630.50
2023-03-31T09:16:46.433Z,99633.94
2023-03-31T09:19:53.119Z,99638.59
2023-03-31T09:23:06.797Z,99623.84
2023-03-31T09:26:18.854Z,99613.44
2023-03-31T09:29:24.426Z,99612.09
2023-03-31T09:32:29.373Z,99610.88
2023-03-31T09:35:33.751Z,99607.88
2023-03-31T09:38:36.592Z,99608.00
2023-03-31T09:41:39.565Z,99599.97
2023-03-31T09:44:46.632Z,99597.34
2023-03-31T09:47:54.049Z,99590.19
2023-03-31T09:51:00.663Z,99586.12
2023-03-31T09:54:07.722Z,99591.31
2023-03-31T09:57:14.916Z,99582.59
2023-03-31T10:00:24.343Z,99578.62
2023-03-31T10:03:30.178Z,99573.47
2023-03-31T10:06:32.392Z,99569.03
2023-03-31T10:09:38.380Z,99563.66
2023-03-31T10:12:40.751Z,99552.00
2023-03-31T10:15:43.465Z,99546.31
2023-03-31T10:18:45.470Z,99545.28
2023-03-31T10:21:48.683Z,99537.19
2023-03-31T10:24:51.495Z,99532.72
2023-03-31T10:27:55.309Z,99531.78
2023-03-31T10:31:01.420Z,99526.72
2023-03-31T10:34:09.745Z,99516.28
2023-03-31T10:37:15.012Z,99516.41
2023-03-31T10:40:27.835Z,99512.28
2023-03-31T10:43:38.967Z,99512.31
2023-03-31T10:46:52.849Z,99514.81
2023-03-31T10:49:58.142Z,99502.16
2023-03-31T10:53:02.806Z,99502.53
2023-03-31T10:56:10.993Z,99503.06
2023-03-31T10:59:31.943Z,99496.06
2023-03-31T11:02:42.921Z,99488.09
2023-03-31T11:05:53.143Z,99492.75
2023-03-31T11:09:13.626Z,99490.06
2023-03-31T11:12:24.766Z,99472.06
2023-03-31T11:15:45.695Z,99479.91
2023-03-31T11:18:54.684Z,99484.75
2023-03-31T11:22:15.468Z,99466.87
2023-03-31T11:25:17.811Z,99462.66
2023-03-31T11:28:20.652Z,99453.56
2023-03-31T11:31:50.078Z,99440.06
2023-03-31T11:35:14.270Z,99430.34
2023-03-31T11:38:24.024Z,99415.81
2023-03-31T11:41:27.642Z,99412.25
2023-03-31T11:44:37.694Z,99402.12
2023-03-31T11:47:47.109Z,99385.63
2023-03-31T11:50:50.086Z,99386.81
2023-03-31T11:53:54.077Z,99381.84
2023-03-31T11:56:56.947Z,99374.81
2023-03-31T12:00:05.023Z,99376.25
2023-03-31T12:03:16.500Z,99372.44
2023-03-31T12:06:21.050Z,99360.13
2023-03-31T12:09:27.280Z,99350.09
2023-03-31T12:12:30.947Z,99340.94
2023-03-31T12:15:46.118Z,99344.78
2023-03-31T12:19:05.948Z,99344.63
2023-03-31T12:22:14.495Z,99338.22
2023-03-31T12:25:22.914Z,99329.38
2023-03-31T12:28:27.560Z,99327.06
2023-03-31T12:31:33.026Z,99324.56
2023-03-31T12:34:38.242Z,99325.06
2023-03-31T12:37:40.500Z,99315.22
2023-03-31T12:41:01.278Z,99314.44
2023-03-31T12:44:12.998Z,99309.94
2023-03-31T12:47:15.094Z,99306.19
2023-03-31T12:50:36.511Z,99292.87
2023-03-31T12:53:44.323Z,99294.50
2023-03-31T12:57:02.036Z,99286.47
2023-03-31T13:00:21.014Z,99276.53
2023-03-31T13:03:37.067Z,99272.06
2023-03-31T13:06:39.079Z,99279.31
2023-03-31T13:09:42.907Z,99275.75
2023-03-31T13:13:04.118Z,99270.50
2023-03-31T13:16:06.427Z,99262.53
2023-03-31T13:19:10.541Z,99247.97
2023-03-31T13:22:28.096Z,99232.16
2023-03-31T13:25:30.375Z,99231.03
2023-03-31T13:28:34.628Z,99214.72
2023-03-31T13:31:55.370Z,99210.22
2023-03-31T13:34:59.762Z,99208.91
2023-03-31T13:38:01.775Z,99187.91
2023-03-31T13:41:16.582Z,99198.63
2023-03-31T13:44:38.468Z,99183.28
2023-03-31T13:48:00.236Z,99165.66
2023-03-31T13:51:20.784Z,99149.78
2023-03-31T13:54:41.883Z,99155.13
2023-03-31T13:57:53.052Z,99156.06
2023-03-31T14:00:58.622Z,99163.22
2023-03-31T14:04:19.491Z,99162.19
2023-03-31T14:07:40.394Z,99158.41
2023-03-31T14:10:43.375Z,99154.97
2023-03-31T14:13:58.326Z,99138.56
2023-03-31T14:17:01.987Z,99133.63
2023-03-31T14:20:10.728Z,99127.91
2023-03-31T14:23:31.911Z,99113.00
2023-03-31T14:26:49.110Z,99112.56
2023-03-31T14:29:57.983Z,99088.69
2023-03-31T14:33:18.644Z,99084.06
2023-03-31T14:36:21.426Z,99080.97
2023-03-31T14:39:26.361Z,99073.13
2023-03-31T14:42:43.016Z,99074.75
2023-03-31T14:45:45.037Z,99070.06
2023-03-31T14:48:48.478Z,99058.16
2023-03-31T14:51:52.987Z,99051.00
2023-03-31T14:54:55.590Z,99051.62
2023-03-31T14:57:59.735Z,99061.88
2023-03-31T15:01:07.073Z,99047.94
2023-03-31T15:04:11.764Z,99049.13
2023-03-31T15:07:16.209Z,99047.09
2023-03-31T15:10:20.418Z,99053.12
2023-03-31T15:13:29.627Z,99056.16
2023-03-31T15:16:35.166Z,99046.56
2023-03-31T15:19:37.616Z,99052.81
2023-03-31T15:22:39.730Z,99047.47
2023-03-31T15:25:43.130Z,99043.22
2023-03-31T15:28:57.165Z,99047.28
2023-03-31T15:31:59.823Z,99042.09
2023-03-31T15:35:18.852Z,99033.31
2023-03-31T15:38:27.512Z,99028.53
2023-03-31T15:41:30.848Z,99019.66
2023-03-31T15:44:38.647Z,99014.03
2023-03-31T15:47:48.610Z,99015.53
2023-03-31T15:50:51.857Z,98999.84
2023-03-31T15:53:54.302Z,99001.72
2023-03-31T15:56:59.315Z,99002.06
2023-03-31T16:00:02.098Z,98993.00
2023-03-31T16:03:13.449Z,98987.72
2023-03-31T16:06:22.389Z,98988.88
2023-03-31T16:09:27.967Z,98994.03
2023-03-31T16:12:49.017Z,98995.00
2023-03-31T16:15:52.826Z,98998.31
2023-03-31T16:19:04.135Z,98989.59
2023-03-31T16:22:06.636Z,98983.00
2023-03-31T16:25:10.970Z,98988.28
2023-03-31T16:28:33.303Z,98988.13
2023-03-31T16:31:37.236Z,98993.91
2023-03-31T16:34:59.103Z,98998.34
2023-03-31T16:38:04.401Z,99006.59
2023-03-31T16:41:07.338Z,99003.41
2023-03-31T16:44:09.835Z,99006.38
2023-03-31T16:47:27.666Z,99012.44
2023-03-31T16:50:37.048Z,99017.59
2023-03-31T16:53:39.082Z,99025.19
2023-03-31T16:56:41.400Z,99025.00
2023-03-31T16:59:46.800Z,99013.62
2023-03-31T17:02:49.274Z,99020.53
2023-03-31T17:05:53.033Z,99006.66
2023-03-31T17:08:55.838Z,99009.63
2023-03-31T17:11:58.156Z,99010.59
2023-03-31T17:15:00.798Z,99006.62
2023-03-31T17:18:03.544Z,99016.72
2023-03-31T17:21:08.900Z,99005.59
2023-03-31T17:24:12.331Z,98991.34
2023-03-31T17:27:15.942Z,98989.72
2023-03-31T17:30:18.195Z,98978.16
2023-03-31T17:33:21.258Z,98977.91
2023-03-31T17:36:23.331Z,98976.44
2023-03-31T17:39:27.522Z,98976.75
2023-03-31T17:42:30.268Z,98978.88
2023-03-31T17:45:33.608Z,98967.41
2023-03-31T17:48:36.812Z,98955.59
2023-03-31T17:51:39.475Z,98950.69
2023-03-31T17:54:42.697Z,98964.31
2023-03-31T17:57:46.180Z,98968.12
2023-03-31T18:00:48.215Z,98979.81
2023-03-31T18:03:50.592Z,98992.63
2023-03-31T18:06:52.798Z,98988.69
2023-03-31T18:09:55.162Z,98996.91
2023-03-31T18:12:59.329Z,99002.03
2023-03-31T18:16:02.850Z,99002.41
2023-03-31T18:19:05.011Z,99003.56
2023-03-31T18:22:08.354Z,99001.47
2023-03-31T18:25:10.626Z,99015.56
2023-03-31T18:28:14.597Z,99010.28
2023-03-31T18:31:16.800Z,99021.44
2023-03-31T18:34:19.650Z,99008.19
2023-03-31T18:37:22.348Z,99007.00
2023-03-31T18:40:25.558Z,99009.00
2023-03-31T18:43:27.769Z,99015.03
2023-03-31T18:46:30.383Z,99017.19
2023-03-31T18:49:32.641Z,99023.13
2023-03-31T18:52:37.058Z,99020.06
2023-03-31T18:55:39.266Z,99017.53
2023-03-31T18:58:41.903Z,99016.41
2023-03-31T19:01:44.030Z,99007.19
2023-03-31T19:04:47.149Z,99015.53
2023-03-31T19:07:49.188Z,99008.53
2023-03-31T19:10:52.251Z,99021.25
2023-03-31T19:13:55.943Z,99023.97
2023-03-31T19:16:58.325Z,99013.75
2023-03-31T19:20:00.722Z,99012.88
2023-03-31T19:23:03.099Z,99008.47
2023-03-31T19:26:07.895Z,99011.78
2023-03-31T19:29:10.308Z,99010.56
2023-03-31T19:32:12.523Z,99011.84
2023-03-31T19:35:15.608Z,99018.63
2023-03-31T19:38:19.131Z,99014.62
2023-03-31T19:41:21.900Z,99011.53
2023-03-31T19:44:24.050Z,99007.38
2023-03-31T19:47:26.666Z,99010.59
2023-03-31T19:50:28.697Z,99006.75
2023-03-31T19:53:31.689Z,99013.31
2023-03-31T19:56:34.027Z,99001.47
2023-03-31T19:59:36.426Z,99001.19
2023-03-31T20:02:38.738Z,99002.91
2023-03-31T20:05:41.233Z,98998.88
2023-03-31T20:08:43.896Z,99004.00
2023-03-31T20:11:48.241Z,99000.00
2023-03-31T20:14:50.416Z,98994.09
2023-03-31T20:17:53.048Z,98997.28
2023-03-31T20:21:04.564Z,98990.66
2023-03-31T20:24:07.284Z,99000.19
2023-03-31T20:27:09.769Z,98999.91
2023-03-31T20:30:12.285Z,98992.31
2023-03-31T20:33:14.378Z,98991.34
2023-03-31T20:36:18.070Z,98989.16
2023-03-31T20:39:20.596Z,98988.28
2023-03-31T20:42:23.085Z,98988.28
2023-03-31T20:45:25.227Z,98977.25
2023-03-31T20:48:28.244Z,98979.47
2023-03-31T20:51:33.475Z,98969.91
2023-03-31T20:54:36.201Z,98967.72
2023-03-31T20:57:38.397Z,98964.81
2023-03-31T21:00:41.344Z,98972.41
2023-03-31T21:03:44.148Z,98953.22
2023-03-31T21:06:47.467Z,98962.47
2023-03-31T21:09:49.626Z,98950.44
2023-03-31T21:12:52.714Z,98947.94
2023-03-31T21:15:55.828Z,98956.50
2023-03-31T21:19:01.347Z,98950.16
2023-03-31T21:22:03.453Z,98953.72
2023-03-31T21:25:06.246Z,98942.69
2023-03-31T21:28:08.297Z,98942.28
2023-03-31T21:31:18.106Z,98941.44
2023-03-31T21:34:20.152Z,98932.72
2023-03-31T21:37:24.405Z,98928.28
2023-03-31T21:40:26.477Z,98920.41
2023-03-31T21:43:28.817Z,98928.44
2023-03-31T21:46:33.100Z,98931.63
2023-03-31T21:49:35.651Z,98944.03
2023-03-31T21:52:37.774Z,98948.72
2023-03-31T21:55:40.182Z,98956.16
2023-03-31T21:58:42.322Z,98953.09
2023-03-31T22:01:44.838Z,98951.72
2023-03-31T22:04:47.288Z,98955.59
2023-03-31T22:07:49.661Z,98953.25
2023-03-31T22:10:52.273Z,98959.47
2023-03-31T22:13:54.411Z,98968.62
2023-03-31T22:16:57.000Z,98962.66
2023-03-31T22:19:59.035Z,98959.16
2023-03-31T22:23:01.682Z,98957.81
2023-03-31T22:26:03.831Z,98951.97
2023-03-31T22:29:06.247Z,98955.91
2023-03-31T22:32:08.343Z,98943.78
2023-03-31T22:35:11.194Z,98937.56
2023-03-31T22:41:16.331Z,98940.72
2023-03-31T22:44:18.704Z,98935.72
2023-03-31T22:47:21.197Z,98940.44
2023-03-31T22:50:23.838Z,98935.84
2023-03-31T22:53:26.511Z,98939.84
2023-03-31T22:56:28.683Z,98937.62
2023-03-31T22:59:31.245Z,98932.00
2023-03-31T23:02:33.290Z,98924.94
2023-03-31T23:05:35.923Z,98921.53
2023-03-31T23:08:38.282Z,98925.69
2023-03-31T23:11:40.933Z,98915.12
2023-03-31T23:14:43.011Z,98917.75
2023-03-31T23:17:45.439Z,98918.72
2023-03-31T23:20:47.644Z,98913.72
2023-03-31T23:23:51.844Z,98908.25
2023-03-31T23:26:54.177Z,98907.12
2023-03-31T23:29:56.568Z,98901.31
2023-03-31T23:32:58.612Z,98912.19
2023-03-31T23:36:03.266Z,98915.22
2023-03-31T23:39:06.800Z,98923.34
2023-03-31T23:42:10.058Z,98911.47
2023-03-31T23:45:12.200Z,98923.06
2023-03-31T23:48:14.935Z,98937.66
2023-03-31T23:51:17.002Z,98935.22
2023-03-31T23:54:19.421Z,98942.53
2023-03-31T23:57:21.557Z,98935.31
